KG7ZVH-5 Weather Reports


Display with metric or nautical units.
time (UTC)temp
F
wind
direction
speed
MPH
gust
MPH
rain 1hr
in
rain 24hr
in
rain mn
in
humidity
%
barometer
mb
20200406014359 55 92 7.0 12.0 0.00 0.00 4.34 31 1014.8
20200406013355 56 84 7.0 12.0 0.00 0.00 4.34 30 1014.7
20200406010348 58 39 8.0 16.0 0.00 0.00 4.34 25 1014.5
20200406004616 59 78 6.0 18.0 0.00 0.00 4.30 24 1014.3
20200406004345 59 78 6.0 18.0 0.00 0.00 4.30 24 1014.3
20200406002345 60 91 8.0 15.0 0.00 0.00 2.98 23 1014.2
20200406001333 60 82 7.0 13.0 0.00 0.00 2.37 24 1014.1
20200406000329 60 89 14.0 22.0 0.00 0.00 2.21 22 1014.1
20200405231316 62 122 7.0 18.0 0.00 0.00 1.67 20 1014.1
20200405230315 62 61 13.0 21.0 0.00 0.00 1.67 21 1013.9
20200405225310 62 81 8.0 17.0 0.00 0.00 1.67 21 1014.0
20200405224307 63 105 12.0 19.0 0.00 0.00 1.67 20 1013.8
20200405223725 63 129 9.0 19.0 0.00 0.00 1.67 20 1013.8
20200405223302 63 129 9.0 19.0 0.00 0.00 1.67 20 1013.8
20200405222557 63 54 14.0 21.0 0.00 0.00 1.67 20 1013.8
20200405222300 63 54 14.0 21.0 0.00 0.00 1.67 20 1013.8
20200405063128 40 52 4.0 5.0 0.00 0.00 4.25 59 1015.1
20200405062814 40 52 4.0 5.0 0.00 0.00 4.25 59 1015.1
20200405061823 39 70 2.0 4.0 0.00 0.00 4.25 62 1015.2
20200405060815 39 61 2.0 3.0 0.00 0.00 4.25 62 1015.3
20200405060042 40 78 3.0 3.0 0.00 0.00 4.25 61 1015.3
20200405055931 40 78 3.0 3.0 0.00 0.00 4.25 61 1015.3
20200405054802 41 52 2.0 3.0 0.00 0.00 4.25 59 1015.2
20200405054059 42 74 2.0 3.0 0.00 0.00 4.25 56 1015.2
20200405053803 42 74 2.0 3.0 0.00 0.00 4.25 56 1015.2
20200405053041 42 84 2.0 4.0 0.00 0.00 4.25 56 1015.2
20200405052813 42 84 2.0 4.0 0.00 0.00 4.25 56 1015.2
20200405051757 43 84 3.0 5.0 0.00 0.00 4.25 54 1015.3
20200405050954 43 78 3.0 5.0 0.00 0.00 4.25 55 1015.3
20200405050810 43 78 3.0 5.0 0.00 0.00 4.25 55 1015.3
20200405045151 41 90 2.0 5.0 0.00 0.00 4.25 58 1015.2
20200405044748 41 90 2.0 5.0 0.00 0.00 4.25 58 1015.2
20200405043741 41 104 3.0 4.0 0.00 0.00 4.25 57 1015.3
20200405041753 41 40 2.0 3.0 0.00 0.00 4.25 55 1015.4
20200405034729 43 0 2.0 2.0 0.00 0.00 4.25 49 1015.1
20200405033728 44 21 2.0 2.0 0.00 0.00 4.25 47 1015.1
20200405032723 46 0 1.0 2.0 0.00 0.00 4.25 45 1015.0
20200405030714 48 67 4.0 4.0 0.00 0.00 4.25 43 1014.8
20200405024708 49 56 4.0 4.0 0.00 0.00 4.25 41 1014.7
20200405023704 50 101 3.0 6.0 0.00 0.00 4.25 40 1014.5
20200405023052 51 76 6.0 8.0 0.00 0.00 4.25 40 1014.5
20200405022701 51 76 6.0 8.0 0.00 0.00 4.25 40 1014.5
20200405021703 51 77 6.0 9.0 0.00 0.00 4.25 39 1014.4
20200405020700 52 94 3.0 6.0 0.00 0.00 4.25 39 1014.4
20200405015654 53 99 5.0 9.0 0.00 0.00 4.25 37 1014.3
20200405014650 54 81 5.0 10.0 0.00 0.00 4.25 36 1014.3